Time;durP1;ratioP1;P1;durP2;ratioP2;P2;SDS_P1;SDS_P2;PMS_P1;PMS_P2;Temp;Humidity;BMP_temperature;BMP_pressure;BME280_temperature;BME280_humidity;BME280_pressure;Samples;Min_cycle;Max_cycle;Signal;HPM_P1;HPM_P2
2022/05/13 00:01:27;;;;;;;9.60;3.00;;;;;;;13.61;55.50;101741.19;5205713;28;20029;-71
2022/05/13 00:03:59;;;;;;;19.70;3.40;;;;;;;13.11;56.96;101742.16;5200970;28;20643;-71
2022/05/13 00:06:30;;;;;;;19.50;4.27;;;;;;;13.42;56.72;101736.97;5202914;28;20085;-70
2022/05/13 00:09:02;;;;;;;19.17;3.50;;;;;;;13.38;56.95;101740.69;5199513;28;20658;-71
2022/05/13 00:11:33;;;;;;;8.63;2.70;;;;;;;13.50;56.65;101728.59;5222727;28;20025;-71
2022/05/13 00:14:07;;;;;;;9.80;2.87;;;;;;;13.40;57.26;101734.41;5231337;28;20040;-71
2022/05/13 00:16:38;;;;;;;16.40;3.70;;;;;;;13.40;57.58;101739.69;5231479;28;20104;-70
2022/05/13 00:19:11;;;;;;;13.40;3.17;;;;;;;13.29;57.93;101729.75;5231257;28;20033;-70
2022/05/13 00:21:42;;;;;;;14.53;2.97;;;;;;;13.26;58.34;101732.56;5231729;28;20030;-71
2022/05/13 00:24:13;;;;;;;7.43;2.90;;;;;;;13.32;57.96;101741.88;5230544;28;20036;-71
2022/05/13 00:26:44;;;;;;;13.27;3.47;;;;;;;13.27;57.92;101736.03;5231588;28;20029;-71
2022/05/13 00:29:16;;;;;;;16.70;3.53;;;;;;;13.13;58.63;101731.56;5231252;28;20091;-71
2022/05/13 00:31:47;;;;;;;11.90;4.30;;;;;;;13.14;58.78;101733.28;5231818;28;20108;-70
2022/05/13 00:34:19;;;;;;;13.83;2.93;;;;;;;13.22;58.37;101732.81;5219282;28;20026;-71
2022/05/13 00:36:50;;;;;;;14.70;3.17;;;;;;;12.98;59.50;101731.50;5210830;28;20130;-71
2022/05/13 00:39:22;;;;;;;12.20;3.13;;;;;;;12.78;59.68;101732.59;5211076;28;20030;-70
2022/05/13 00:41:53;;;;;;;13.53;3.00;;;;;;;12.91;59.69;101724.88;5209828;28;20030;-71
2022/05/13 00:44:24;;;;;;;12.37;2.67;;;;;;;12.91;59.73;101731.00;5211216;28;20033;-70
2022/05/13 00:46:55;;;;;;;12.80;3.13;;;;;;;12.95;59.58;101735.13;5210200;28;20030;-71
2022/05/13 00:49:27;;;;;;;12.63;3.57;;;;;;;12.89;59.41;101734.63;5210085;28;20034;-71
2022/05/13 00:52:01;;;;;;;9.23;2.93;;;;;;;12.78;59.73;101730.81;5210920;28;20049;-71
2022/05/13 00:54:33;;;;;;;11.00;2.45;;;;;;;12.72;59.36;101736.44;5210791;28;20030;-71
2022/05/13 00:57:05;;;;;;;10.40;2.67;;;;;;;12.50;59.42;101727.06;5208584;28;20073;-71
2022/05/13 00:59:39;;;;;;;13.27;2.67;;;;;;;12.42;58.88;101719.63;5210434;28;20026;-71
2022/05/13 01:02:11;;;;;;;7.07;2.63;;;;;;;12.38;58.94;101735.59;5210572;28;20041;-70
2022/05/13 01:04:43;;;;;;;11.77;2.53;;;;;;;12.28;58.93;101725.59;5210368;28;20465;-71
2022/05/13 01:07:19;;;;;;;8.60;2.30;;;;;;;12.30;58.65;101725.53;5210927;28;20480;-70
2022/05/13 01:09:56;;;;;;;6.67;2.03;;;;;;;12.32;58.34;101728.91;5213721;28;20061;-71
2022/05/13 01:12:33;;;;;;;5.67;2.13;;;;;;;12.19;58.79;101728.72;5244924;23;20049;-70
2022/05/13 01:15:09;;;;;;;6.60;1.90;;;;;;;12.12;58.77;101740.44;5255361;28;20068;-71
2022/05/13 01:20:34;;;;;;;7.90;2.27;;;;;;;12.13;58.65;101729.03;5256025;28;20052;-71
2022/05/13 01:23:11;;;;;;;8.15;3.00;;;;;;;12.06;58.74;101731.09;5255513;28;20093;-71
2022/05/13 01:25:48;;;;;;;9.77;2.37;;;;;;;12.15;58.24;101721.94;5255038;28;20151;-71
2022/05/13 01:28:34;;;;;;;12.20;2.27;;;;;;;12.10;58.17;101723.00;5255525;28;20021;-71
2022/05/13 01:31:09;;;;;;;7.37;1.80;;;;;;;12.09;58.36;101723.97;5255376;28;20084;-71
2022/05/13 01:33:41;;;;;;;6.13;1.80;;;;;;;11.97;58.66;101724.56;5255278;28;20025;-70
2022/05/13 01:36:12;;;;;;;9.63;2.10;;;;;;;11.95;58.53;101729.03;5255210;28;20041;-70
2022/05/13 01:38:44;;;;;;;10.30;2.10;;;;;;;11.98;58.38;101726.25;5253849;28;20035;-71
2022/05/13 01:41:16;;;;;;;9.00;1.83;;;;;;;11.85;58.76;101728.66;5254048;28;20551;-70
2022/05/13 01:43:49;;;;;;;11.93;1.90;;;;;;;11.73;59.12;101740.59;5255484;28;20021;-71
2022/05/13 01:46:22;;;;;;;7.03;2.77;;;;;;;11.78;59.16;101730.72;5254344;28;20075;-71
2022/05/13 01:48:54;;;;;;;6.60;2.00;;;;;;;11.78;58.87;101730.72;5254711;28;20522;-70
2022/05/13 01:51:25;;;;;;;8.93;1.90;;;;;;;11.78;58.96;101717.59;5254870;28;20037;-70
2022/05/13 01:53:56;;;;;;;8.40;1.40;;;;;;;11.81;59.12;101733.22;5237846;28;20370;-70
2022/05/13 01:56:28;;;;;;;8.43;2.07;;;;;;;11.76;59.26;101729.97;5212657;28;20033;-71
2022/05/13 01:58:59;;;;;;;8.60;2.03;;;;;;;11.77;58.92;101726.41;5213724;28;20092;-70
2022/05/13 02:01:30;;;;;;;7.10;1.80;;;;;;;11.68;59.67;101732.13;5213472;28;20022;-70
2022/05/13 02:04:02;;;;;;;6.27;1.90;;;;;;;11.88;59.03;101730.28;5213038;28;20026;-70
2022/05/13 02:06:33;;;;;;;6.90;1.73;;;;;;;11.82;59.24;101734.91;5213638;28;20030;-70
2022/05/13 02:09:04;;;;;;;7.90;2.00;;;;;;;11.52;60.43;101737.31;5213083;28;20091;-70
2022/05/13 02:11:36;;;;;;;8.53;1.90;;;;;;;11.69;59.82;101733.84;5211018;28;20057;-71
2022/05/13 02:14:08;;;;;;;7.10;1.60;;;;;;;11.62;59.83;101710.50;5212781;28;20038;-70
2022/05/13 02:16:40;;;;;;;8.83;2.50;;;;;;;11.76;60.07;101740.47;5213403;28;20026;-70
2022/05/13 02:19:11;;;;;;;8.20;2.30;;;;;;;11.76;60.27;101737.84;5212275;28;20111;-70
2022/05/13 02:21:43;;;;;;;12.97;2.43;;;;;;;11.66;60.57;101729.56;5212801;28;20204;-70
2022/05/13 02:24:14;;;;;;;14.10;2.70;;;;;;;11.70;60.91;101736.38;5217727;28;20032;-70
2022/05/13 02:26:46;;;;;;;8.27;2.80;;;;;;;11.65;61.00;101727.88;5211937;28;20111;-70
2022/05/13 02:29:17;;;;;;;10.20;2.50;;;;;;;11.78;60.57;101728.09;5212675;28;20058;-70
2022/05/13 02:31:48;;;;;;;9.10;2.60;;;;;;;11.63;61.23;101727.13;5212489;28;20369;-70
2022/05/13 02:34:20;;;;;;;9.10;2.20;;;;;;;11.64;61.43;101720.97;5212682;28;20435;-71
2022/05/13 02:36:51;;;;;;;12.47;2.33;;;;;;;11.60;61.58;101730.75;5212836;28;20033;-70
2022/05/13 02:39:22;;;;;;;9.00;2.83;;;;;;;11.59;61.83;101722.97;5210806;28;20037;-70
2022/05/13 02:41:54;;;;;;;13.07;2.73;;;;;;;11.66;61.56;101723.50;5211875;28;20052;-70
2022/05/13 02:44:25;;;;;;;12.23;2.63;;;;;;;11.62;61.89;101725.44;5212271;28;20029;-70
2022/05/13 02:46:57;;;;;;;10.43;2.10;;;;;;;11.44;62.97;101725.41;5212539;28;20052;-70
2022/05/13 02:49:28;;;;;;;9.93;2.40;;;;;;;11.50;62.92;101734.75;5210957;28;20057;-70
2022/05/13 02:51:59;;;;;;;11.37;2.63;;;;;;;11.58;62.70;101727.34;5212657;28;20022;-70
2022/05/13 02:54:31;;;;;;;9.00;2.50;;;;;;;11.53;63.32;101718.00;5210636;28;20114;-70
2022/05/13 02:57:02;;;;;;;13.10;2.77;;;;;;;11.52;63.30;101717.16;5209796;28;20030;-70
2022/05/13 02:59:34;;;;;;;10.10;2.97;;;;;;;11.43;64.14;101712.38;5211242;28;20433;-70
2022/05/13 03:02:05;;;;;;;11.80;3.13;;;;;;;11.49;64.23;101726.03;5210539;28;20080;-70
2022/05/13 03:04:36;;;;;;;9.03;3.13;;;;;;;11.52;64.10;101722.38;5212609;28;20365;-70
2022/05/13 03:07:07;;;;;;;10.17;2.23;;;;;;;11.60;64.35;101724.66;5210730;28;20026;-71
2022/05/13 03:09:39;;;;;;;9.70;2.93;;;;;;;11.51;65.22;101725.97;5212130;28;20034;-70
2022/05/13 03:12:11;;;;;;;11.00;3.37;;;;;;;11.47;65.43;101716.53;5211639;28;20041;-70
2022/05/13 03:14:43;;;;;;;13.67;2.70;;;;;;;11.55;65.36;101726.66;5212572;28;20594;-70
2022/05/13 03:17:14;;;;;;;13.03;2.97;;;;;;;11.61;65.29;101719.31;5212159;28;20021;-70
2022/05/13 03:19:45;;;;;;;12.87;3.87;;;;;;;11.57;66.00;101723.00;5211904;28;20086;-70
2022/05/13 03:22:17;;;;;;;19.30;3.70;;;;;;;11.45;66.73;101721.03;5212619;28;20034;-70
2022/05/13 03:24:49;;;;;;;11.17;3.43;;;;;;;11.48;66.84;101720.88;5209828;28;20030;-70
2022/05/13 03:27:20;;;;;;;12.60;3.43;;;;;;;11.56;66.25;101713.47;5210570;28;20072;-70
2022/05/13 03:29:51;;;;;;;14.43;3.47;;;;;;;11.54;66.62;101715.31;5211592;28;20065;-70
2022/05/13 03:32:22;;;;;;;15.30;3.80;;;;;;;11.52;66.87;101714.53;5211251;28;20033;-70
2022/05/13 03:34:54;;;;;;;11.90;3.57;;;;;;;11.43;67.57;101705.34;5211802;28;20022;-70
2022/05/13 03:37:25;;;;;;;12.67;3.53;;;;;;;11.48;66.99;101705.13;5211822;28;20038;-71
2022/05/13 03:39:56;;;;;;;13.80;3.57;;;;;;;11.43;67.29;101709.75;5210844;28;20096;-70
2022/05/13 03:42:28;;;;;;;14.57;4.57;;;;;;;11.46;66.70;101714.84;5211352;28;20084;-70
2022/05/13 03:44:59;;;;;;;12.20;3.80;;;;;;;11.37;67.60;101714.38;5211619;28;20030;-70
2022/05/13 03:47:30;;;;;;;15.57;4.73;;;;;;;11.44;67.71;101719.31;5211940;28;20069;-70
2022/05/13 03:50:03;;;;;;;12.87;3.67;;;;;;;11.38;67.97;101716.06;5211150;28;20033;-70
2022/05/13 03:52:35;;;;;;;18.77;4.13;;;;;;;11.26;68.52;101714.03;5211242;28;20030;-70
2022/05/13 03:55:07;;;;;;;13.10;3.70;;;;;;;11.33;68.49;101717.22;5208401;28;20026;-70
2022/05/13 03:57:38;;;;;;;12.13;4.37;;;;;;;11.34;68.36;101706.66;5211666;28;20059;-70
2022/05/13 04:00:11;;;;;;;15.10;4.63;;;;;;;11.31;68.58;101716.47;5211106;28;20022;-70
2022/05/13 04:02:43;;;;;;;18.60;4.73;;;;;;;11.10;69.89;101722.66;5211499;28;20038;-70
2022/05/13 04:10:56;;;;;;;15.67;4.23;;;;;;;11.24;69.38;101713.28;5208562;28;20058;-70
2022/05/13 04:16:17;;;;;;;15.57;4.30;;;;;;;11.17;69.49;101717.13;5211136;28;20042;-71
2022/05/13 04:18:50;;;;;;;14.73;4.57;;;;;;;11.12;70.05;101714.72;5211152;28;20038;-70
2022/05/13 04:21:32;;;;;;;12.93;3.60;;;;;;;11.19;69.77;101720.53;5211063;28;20033;-70
2022/05/13 04:24:06;;;;;;;17.37;4.67;;;;;;;10.96;70.80;101704.13;5209882;28;20108;-70
2022/05/13 04:26:38;;;;;;;15.87;4.13;;;;;;;11.03;70.71;101710.75;5210092;28;20113;-70
2022/05/13 04:29:09;;;;;;;13.67;3.77;;;;;;;11.11;70.36;101716.50;5211230;28;20105;-70
2022/05/13 04:31:42;;;;;;;10.93;3.73;;;;;;;11.09;70.56;101720.97;5210536;28;20099;-70
2022/05/13 04:34:14;;;;;;;15.20;3.90;;;;;;;11.03;71.45;101721.25;5210888;28;20113;-70
2022/05/13 04:36:46;;;;;;;19.20;5.30;;;;;;;11.07;71.19;101722.81;5211109;28;20528;-70
2022/05/13 04:39:17;;;;;;;14.67;3.73;;;;;;;10.88;72.27;101723.69;5211010;28;20431;-70
2022/05/13 04:44:39;;;;;;;14.23;3.77;;;;;;;11.03;71.52;101730.91;5214934;28;20041;-70
2022/05/13 04:50:00;;;;;;;17.10;5.03;;;;;;;11.00;72.24;101748.47;5220303;28;20924;-70
2022/05/13 04:52:31;;;;;;;15.40;4.40;;;;;;;11.13;71.69;101747.88;5214422;28;20033;-70
2022/05/13 04:55:04;;;;;;;15.47;5.10;;;;;;;11.08;72.09;101755.94;5213601;28;20029;-70
2022/05/13 04:57:35;;;;;;;14.17;5.00;;;;;;;11.16;71.75;101750.34;5213318;28;20404;-70
2022/05/13 05:00:07;;;;;;;11.83;3.53;;;;;;;11.15;72.38;101753.91;5214507;28;20033;-70
2022/05/13 05:02:39;;;;;;;12.50;3.80;;;;;;;11.12;72.63;101751.41;5226269;28;20108;-70
2022/05/13 05:05:10;;;;;;;15.40;5.43;;;;;;;11.15;72.47;101755.69;5232085;28;20060;-70
2022/05/13 05:07:41;;;;;;;11.83;4.30;;;;;;;11.10;72.18;101748.03;5233844;28;20044;-69
2022/05/13 05:10:13;;;;;;;15.70;3.97;;;;;;;11.22;72.29;101768.41;5232595;28;20022;-70
2022/05/13 05:12:45;;;;;;;15.47;3.90;;;;;;;11.25;72.16;101773.53;5233935;28;20045;-70
2022/05/13 05:15:16;;;;;;;13.60;4.20;;;;;;;11.29;72.08;101763.75;5234133;28;20029;-70
2022/05/13 05:17:48;;;;;;;16.93;3.77;;;;;;;11.32;72.08;101767.97;5229513;28;20490;-72
2022/05/13 05:20:20;;;;;;;17.07;4.60;;;;;;;11.39;71.63;101772.00;5225801;28;20502;-71
2022/05/13 05:22:54;;;;;;;17.87;3.63;;;;;;;11.35;72.19;101778.31;5229196;28;20037;-72
2022/05/13 05:25:28;;;;;;;12.23;4.50;;;;;;;11.42;71.94;101778.84;5234319;28;20047;-71
2022/05/13 05:28:00;;;;;;;;;;;;;;;11.57;69.70;101778.09;5228495;28;20030;-71
2022/05/13 05:30:31;;;;;;;14.17;3.50;;;;;;;11.46;71.55;101786.53;5226230;28;20424;-71
2022/05/13 05:33:02;;;;;;;19.17;5.07;;;;;;;11.43;71.69;101772.72;5221505;28;20026;-70
2022/05/13 05:35:34;;;;;;;12.53;4.70;;;;;;;11.54;71.91;101795.78;5227043;28;20033;-71
2022/05/13 05:38:07;;;;;;;12.67;3.60;;;;;;;11.55;71.74;101798.34;5221802;28;20028;-71
2022/05/13 05:40:39;;;;;;;15.67;3.60;;;;;;;11.69;71.30;101799.44;5222525;28;20014;-71
2022/05/13 05:43:15;;;;;;;16.13;4.53;;;;;;;11.59;71.68;101797.25;5223445;28;20033;-71
2022/05/13 05:45:46;;;;;;;26.70;4.83;;;;;;;11.70;71.32;101798.50;5216409;28;20465;-71
2022/05/13 05:48:22;;;;;;;19.70;4.70;;;;;;;11.70;71.51;101812.47;5230404;28;20033;-71
2022/05/13 05:50:55;;;;;;;18.87;4.70;;;;;;;11.78;71.44;101806.84;5222347;28;20034;-71
2022/05/13 05:59:08;;;;;;;11.17;4.10;;;;;;;11.83;71.51;101819.75;5212331;28;20037;-70
2022/05/13 06:01:39;;;;;;;15.23;4.17;;;;;;;11.95;71.08;101831.41;5226172;28;20082;-70
2022/05/13 06:04:10;;;;;;;12.57;4.00;;;;;;;11.97;71.31;101829.56;5214951;28;20034;-71
2022/05/13 06:06:41;;;;;;;14.17;3.90;;;;;;;12.07;71.26;101827.31;5213224;28;20316;-71
2022/05/13 06:09:13;;;;;;;11.30;3.97;;;;;;;12.14;71.31;101820.88;5213117;28;20084;-71
2022/05/13 06:11:44;;;;;;;18.57;5.03;;;;;;;12.23;70.92;101827.44;5233485;28;20112;-71
2022/05/13 06:14:16;;;;;;;15.07;5.43;;;;;;;12.30;71.16;101828.81;5233622;28;20026;-71
2022/05/13 06:16:48;;;;;;;17.70;5.17;;;;;;;12.44;70.36;101835.13;5233300;28;20087;-70
2022/05/13 06:19:20;;;;;;;15.23;5.20;;;;;;;12.49;70.66;101834.88;5233604;28;20076;-70
2022/05/13 06:21:51;;;;;;;12.87;4.90;;;;;;;12.54;70.25;101838.97;5233397;28;20033;-70
2022/05/13 06:24:22;;;;;;;14.93;5.60;;;;;;;12.53;71.02;101841.69;5217567;28;20038;-71
2022/05/13 06:26:54;;;;;;;21.13;5.20;;;;;;;12.67;70.47;101846.22;5212444;28;20025;-71
2022/05/13 06:29:26;;;;;;;16.23;4.80;;;;;;;12.77;69.85;101846.56;5212884;28;20040;-71
2022/05/13 06:31:59;;;;;;;17.93;5.60;;;;;;;12.85;70.07;101848.78;5212922;28;20097;-71
2022/05/13 06:34:30;;;;;;;17.83;5.13;;;;;;;12.86;70.20;101850.47;5216558;28;20737;-70
2022/05/13 06:37:01;;;;;;;17.23;5.13;;;;;;;12.96;69.89;101851.69;5232071;28;20034;-71
2022/05/13 06:39:32;;;;;;;15.83;4.97;;;;;;;12.95;69.72;101853.47;5221173;28;20029;-70
2022/05/13 06:42:04;;;;;;;18.37;5.53;;;;;;;13.04;70.03;101849.47;5207492;28;20460;-71
2022/05/13 06:44:35;;;;;;;19.47;4.70;;;;;;;13.16;69.31;101842.69;5220671;28;20592;-71
2022/05/13 06:47:07;;;;;;;15.50;5.00;;;;;;;13.24;69.12;101849.31;5226620;28;20029;-70
2022/05/13 06:49:38;;;;;;;14.73;5.33;;;;;;;13.37;69.43;101844.25;5217136;28;20025;-70
2022/05/13 06:52:13;;;;;;;13.63;5.33;;;;;;;13.47;68.76;101868.25;5223422;28;20025;-70
2022/05/13 06:54:44;;;;;;;17.95;4.97;;;;;;;13.58;68.27;101863.25;5224577;28;20031;-70
2022/05/13 06:57:15;;;;;;;13.20;4.50;;;;;;;13.70;69.10;101863.50;5230926;28;20034;-71
2022/05/13 06:59:47;;;;;;;16.27;5.60;;;;;;;13.75;67.65;101870.19;5217973;28;20034;-70
2022/05/13 07:02:19;;;;;;;15.40;6.07;;;;;;;13.77;68.03;101868.31;5218480;28;20041;-70
2022/05/13 07:04:50;;;;;;;18.27;6.07;;;;;;;13.86;67.58;101860.84;5228102;28;20033;-70
2022/05/13 07:07:21;;;;;;;20.53;5.13;;;;;;;13.96;67.42;101871.69;5225614;28;20041;-70
2022/05/13 07:09:53;;;;;;;19.20;5.20;;;;;;;14.03;66.65;101863.34;5215559;28;20054;-70
2022/05/13 07:12:24;;;;;;;18.77;5.70;;;;;;;14.12;66.43;101864.59;5218068;28;20040;-70
2022/05/13 07:14:56;;;;;;;17.87;5.73;;;;;;;14.32;66.06;101872.25;5224964;28;20103;-70
2022/05/13 07:17:28;;;;;;;20.97;5.90;;;;;;;14.56;66.31;101871.72;5219993;28;20069;-70
2022/05/13 07:19:59;;;;;;;15.83;5.13;;;;;;;14.67;64.70;101863.16;5220191;28;20037;-70
2022/05/13 07:22:30;;;;;;;17.37;5.37;;;;;;;14.95;64.04;101862.34;5219329;28;20124;-70
2022/05/13 07:25:02;;;;;;;25.93;6.63;;;;;;;15.28;62.94;101864.72;5220926;28;20033;-70
2022/05/13 07:27:34;;;;;;;17.40;4.50;;;;;;;15.48;61.18;101848.44;5220536;28;20087;-71
2022/05/13 07:30:06;;;;;;;15.03;4.97;;;;;;;15.62;60.93;101867.00;5217900;28;20026;-70
2022/05/13 07:32:37;;;;;;;16.83;5.93;;;;;;;15.99;60.36;101861.06;5229540;28;20075;-70
2022/05/13 07:35:09;;;;;;;15.67;5.17;;;;;;;16.38;59.96;101862.00;5219755;28;20061;-70
2022/05/13 07:37:40;;;;;;;13.23;4.17;;;;;;;16.46;58.72;101858.81;5218254;28;20684;-71
2022/05/13 07:43:03;;;;;;;13.40;5.37;;;;;;;16.64;56.35;101872.56;5209089;28;20120;-70
2022/05/13 07:45:34;;;;;;;14.40;5.03;;;;;;;16.41;56.41;101860.91;5208288;28;20028;-72
2022/05/13 07:48:06;;;;;;;15.97;4.23;;;;;;;16.65;55.70;101870.78;5199316;28;20017;-73
2022/05/13 07:50:37;;;;;;;15.40;5.43;;;;;;;17.17;54.50;101876.81;5193187;28;20049;-75
2022/05/13 07:53:09;;;;;;;9.40;4.00;;;;;;;17.14;54.35;101877.06;5207539;28;21022;-69
2022/05/13 07:55:40;;;;;;;11.47;3.70;;;;;;;17.29;53.74;101882.22;5208898;28;20108;-69
2022/05/13 07:58:11;;;;;;;14.73;4.50;;;;;;;17.63;53.02;101874.44;5212314;28;20041;-70
2022/05/13 08:00:43;;;;;;;12.60;3.67;;;;;;;17.73;52.67;101879.06;5211861;28;20476;-70
2022/05/13 08:03:16;;;;;;;12.93;3.77;;;;;;;17.98;51.33;101882.50;5210111;28;21180;-68
2022/05/13 08:05:51;;;;;;;18.90;4.53;;;;;;;17.89;51.33;101876.13;5209324;28;20026;-72
2022/05/13 08:08:26;;;;;;;16.27;4.85;;;;;;;17.90;51.16;101891.06;5208433;28;20564;-71
2022/05/13 08:11:00;;;;;;;9.87;3.80;;;;;;;18.07;51.77;101894.22;5209169;28;20652;-72
2022/05/13 08:13:33;;;;;;;14.98;5.43;;;;;;;18.11;50.76;101896.56;5211771;28;20581;-72
2022/05/13 08:16:09;;;;;;;15.48;4.75;;;;;;;18.40;50.37;101894.47;5210762;28;20140;-83
2022/05/13 08:18:42;;;;;;;13.40;4.00;;;;;;;18.02;50.66;101892.78;5214239;28;20045;-83
2022/05/13 08:21:13;;;;;;;14.20;4.20;;;;;;;18.11;49.95;101893.91;5217160;28;20084;-83
2022/05/13 08:23:45;;;;;;;10.80;3.47;;;;;;;18.25;49.28;101892.03;5219154;28;20057;-83
2022/05/13 08:26:17;;;;;;;12.20;3.53;;;;;;;18.25;49.08;101910.59;5218379;28;20644;-79
2022/05/13 08:28:49;;;;;;;15.03;5.00;;;;;;;18.60;48.66;101901.75;5223904;28;20104;-75
2022/05/13 08:31:20;;;;;;;14.23;3.73;;;;;;;18.50;48.44;101898.13;5223968;28;20838;-75
2022/05/13 08:33:51;;;;;;;15.13;3.87;;;;;;;19.15;47.63;101907.31;5221186;28;20026;-75
2022/05/13 08:36:23;;;;;;;11.03;3.57;;;;;;;19.52;45.70;101896.34;5214636;28;20022;-80
2022/05/13 08:38:54;;;;;;;14.40;3.40;;;;;;;19.64;44.75;101905.13;5213043;28;20034;-78
2022/05/13 08:41:56;;;;;;;11.50;2.77;;;;;;;20.37;45.61;101905.41;5213688;28;20018;-80
2022/05/13 08:44:27;;;;;;;11.27;3.43;;;;;;;19.91;44.18;101887.03;5213820;28;20113;-80
2022/05/13 08:47:41;;;;;;;7.50;2.83;;;;;;;19.73;44.63;101900.88;5233320;28;20109;-79
2022/05/13 08:50:19;;;;;;;17.87;3.23;;;;;;;20.16;44.32;101904.44;5223313;28;20711;-79
2022/05/13 08:53:06;;;;;;;11.30;3.07;;;;;;;20.05;43.99;101897.38;5235086;28;20476;-79
2022/05/13 08:55:49;;;;;;;11.00;3.00;;;;;;;20.49;45.05;101887.56;5233639;28;20490;-79
2022/05/13 08:58:28;;;;;;;11.80;2.87;;;;;;;20.89;43.40;101902.69;5235529;28;20381;-79
2022/05/13 09:01:02;;;;;;;9.93;3.07;;;;;;;20.54;43.18;101888.81;5228222;28;20033;-81
2022/05/13 09:03:50;;;;;;;9.20;3.20;;;;;;;20.64;43.44;101912.00;5229062;28;20025;-80
2022/05/13 09:06:46;;;;;;;11.70;3.20;;;;;;;21.13;42.70;101911.38;5234815;28;20053;-80
2022/05/13 09:09:17;;;;;;;14.97;3.13;;;;;;;21.06;40.39;101900.41;5229924;28;20113;-80
2022/05/13 09:12:17;;;;;;;13.13;2.60;;;;;;;21.79;40.61;101906.44;5214007;28;20486;-80
2022/05/13 09:15:17;;;;;;;12.68;2.90;;;;;;;22.16;38.33;101912.00;5215027;28;20091;-80
2022/05/13 09:18:04;;;;;;;12.20;3.80;;;;;;;22.11;38.82;101902.59;5204254;28;20475;-80
2022/05/13 09:21:02;;;;;;;9.32;2.50;;;;;;;22.70;39.35;101893.63;5217682;28;20822;-80
2022/05/13 09:23:33;;;;;;;11.07;2.92;;;;;;;22.73;37.33;101905.81;5232297;28;20495;-80
2022/05/13 09:26:09;;;;;;;10.85;2.63;;;;;;;22.52;36.32;101904.19;5233957;28;20033;-80
2022/05/13 09:28:58;;;;;;;7.45;2.30;;;;;;;23.03;35.53;101909.19;5233210;28;20029;-80
2022/05/13 09:31:32;;;;;;;10.68;2.20;;;;;;;22.81;36.09;101903.25;5233387;28;20052;-80
2022/05/13 09:34:14;;;;;;;11.38;3.05;;;;;;;23.69;36.28;101914.41;5233355;28;20036;-80
2022/05/13 09:36:48;;;;;;;7.53;2.28;;;;;;;23.40;35.37;101915.44;5234915;28;20032;-80
2022/05/13 09:39:20;;;;;;;;;;;;;;;24.01;35.86;101922.03;5233859;28;20021;-80
2022/05/13 09:41:52;;;;;;;8.90;2.60;;;;;;;22.69;35.70;101913.28;5233458;28;20043;-81
2022/05/13 09:44:26;;;;;;;10.95;2.30;;;;;;;23.08;35.18;101922.09;5232502;28;20393;-81
2022/05/13 09:47:24;;;;;;;11.32;2.80;;;;;;;22.79;35.90;101928.44;5234513;28;20377;-81
2022/05/13 09:49:56;;;;;;;12.23;2.10;;;;;;;22.17;35.87;101919.00;5233956;28;20028;-81
2022/05/13 09:52:36;;;;;;;13.30;2.92;;;;;;;22.22;36.13;101922.94;5234169;28;20068;-81
2022/05/13 09:55:23;;;;;;;10.57;2.75;;;;;;;22.06;36.59;101912.03;5232874;28;20026;-80
2022/05/13 09:57:58;;;;;;;7.60;2.10;;;;;;;21.62;36.20;101918.59;5224238;28;20484;-81
2022/05/13 10:00:35;;;;;;;12.13;2.37;;;;;;;21.53;36.59;101925.59;5212544;28;20030;-81
2022/05/13 10:03:18;;;;;;;12.15;3.15;;;;;;;21.47;36.73;101919.00;5211715;28;20030;-80
2022/05/13 10:06:03;;;;;;;8.90;2.72;;;;;;;21.55;37.25;101925.47;5214278;28;20446;-81
2022/05/13 10:08:37;;;;;;;9.57;3.40;;;;;;;21.39;37.25;101922.38;5212516;28;20037;-80
2022/05/13 10:14:06;;;;;;;8.90;1.90;;;;;;;21.40;36.97;101924.03;5213294;28;20030;-80
2022/05/13 10:16:47;;;;;;;9.53;2.00;;;;;;;21.30;37.13;101922.31;5212998;28;20049;-80
2022/05/13 10:19:25;;;;;;;8.27;2.07;;;;;;;20.76;36.86;101915.41;5213289;28;20026;-80
2022/05/13 10:22:32;;;;;;;8.97;2.23;;;;;;;20.91;37.93;101930.03;5228366;28;20033;-79
2022/05/13 10:25:11;;;;;;;9.27;2.17;;;;;;;20.66;38.26;101939.31;5228324;28;20547;-80
2022/05/13 10:27:50;;;;;;;14.60;4.03;;;;;;;20.45;39.09;101937.53;5226118;28;20030;-71
2022/05/13 10:30:58;;;;;;;6.83;2.23;;;;;;;20.51;38.89;101931.66;5222958;28;20029;-78
2022/05/13 10:33:57;;;;;;;12.70;2.60;;;;;;;21.52;37.77;101938.06;5211363;28;20052;-74
2022/05/13 10:36:42;;;;;;;11.90;3.03;;;;;;;21.67;37.20;101929.69;5230669;28;20553;-74
2022/05/13 10:39:38;;;;;;;11.10;2.80;;;;;;;21.70;37.03;101933.88;5232501;28;20025;-74
2022/05/13 10:42:16;;;;;;;9.60;2.33;;;;;;;21.26;36.48;101938.59;5213046;28;20029;-74
2022/05/13 10:44:58;;;;;;;9.40;2.00;;;;;;;21.31;36.79;101934.69;5213552;28;20032;-75
2022/05/13 10:47:49;;;;;;;9.20;2.10;;;;;;;22.02;35.88;101921.28;5213091;28;20014;-74
2022/05/13 10:50:26;;;;;;;9.05;1.98;;;;;;;22.43;35.72;101923.75;5212418;28;20049;-73
2022/05/13 10:53:12;;;;;;;5.85;2.30;;;;;;;22.14;35.65;101927.31;5211799;28;20113;-73
2022/05/13 10:55:53;;;;;;;7.05;2.28;;;;;;;21.80;35.59;101921.44;5219799;28;20128;-77
2022/05/13 10:58:46;;;;;;;7.93;2.10;;;;;;;21.91;36.52;101930.28;5222530;28;20400;-75
2022/05/13 11:01:40;;;;;;;7.03;2.03;;;;;;;21.79;35.54;101932.19;5213471;28;20037;-76
2022/05/13 11:04:23;;;;;;;4.37;1.70;;;;;;;22.04;35.57;101925.50;5225923;28;20034;-76
2022/05/13 11:07:03;;;;;;;10.57;2.33;;;;;;;22.27;35.47;101925.19;5221888;28;20285;-77
2022/05/13 11:09:59;;;;;;;6.28;2.00;;;;;;;22.34;36.04;101938.81;5221442;28;20022;-77
2022/05/13 11:12:47;;;;;;;8.10;2.53;;;;;;;22.47;35.55;101930.47;5212131;28;20532;-73
2022/05/13 11:15:32;;;;;;;16.08;2.88;;;;;;;22.57;34.90;101931.28;5215569;28;20117;-74
2022/05/13 11:18:17;;;;;;;11.63;3.20;;;;;;;23.04;34.99;101923.41;5214140;28;20528;-74
2022/05/13 11:20:56;;;;;;;10.27;2.35;;;;;;;22.95;34.35;101931.31;5212459;28;20457;-75
2022/05/13 11:27:05;;;;;;;8.43;2.00;;;;;;;22.86;34.00;101934.03;5222451;28;20865;-75
2022/05/13 11:29:44;;;;;;;8.05;2.22;;;;;;;22.44;34.90;101936.97;5230521;28;20500;-73
2022/05/13 11:32:19;;;;;;;11.45;2.30;;;;;;;22.05;35.72;101942.34;5220972;28;20061;-73
2022/05/13 11:35:28;;;;;;;9.20;2.42;;;;;;;22.28;34.46;101936.69;5223646;28;20033;-73
2022/05/13 11:38:05;;;;;;;7.25;2.25;;;;;;;22.18;34.91;101932.22;5214473;28;20157;-73
2022/05/13 11:40:56;;;;;;;6.65;2.65;;;;;;;22.23;34.85;101927.31;5220033;28;20025;-73
2022/05/13 11:43:39;;;;;;;8.50;2.47;;;;;;;22.24;34.55;101931.66;5222217;28;20052;-72
2022/05/13 11:46:25;;;;;;;11.00;2.30;;;;;;;22.16;34.69;101910.19;5220760;28;20651;-72
2022/05/13 11:49:35;;;;;;;7.68;2.85;;;;;;;22.04;35.28;101928.19;5227101;28;20030;-73
2022/05/13 11:52:13;;;;;;;5.50;2.05;;;;;;;22.15;34.89;101919.16;5231580;28;20499;-73
2022/05/13 11:54:44;;;;;;;8.43;2.33;;;;;;;22.19;35.34;101922.38;5231450;28;20022;-73
2022/05/13 11:57:23;;;;;;;9.75;2.67;;;;;;;22.16;34.30;101930.69;5228461;28;20025;-74
2022/05/13 12:00:34;;;;;;;9.63;3.17;;;;;;;22.18;35.95;101936.72;5220349;28;20392;-75
2022/05/13 12:03:08;;;;;;;10.43;2.72;;;;;;;22.14;34.89;101936.16;5221442;28;20385;-75
2022/05/13 12:06:00;;;;;;;10.88;2.53;;;;;;;22.16;35.42;101936.88;5222456;28;20026;-75
2022/05/13 12:08:42;;;;;;;9.20;2.50;;;;;;;22.39;34.85;101930.34;5220148;28;20029;-76
2022/05/13 12:11:25;;;;;;;10.13;1.98;;;;;;;22.33;35.26;101924.63;5218341;28;20053;-73
2022/05/13 12:14:13;;;;;;;4.80;2.05;;;;;;;22.24;35.47;101926.31;5217156;28;20095;-73
2022/05/13 12:17:00;;;;;;;15.40;3.10;;;;;;;22.12;34.64;101914.97;5227365;28;20105;-75
2022/05/13 12:19:57;;;;;;;5.85;2.60;;;;;;;22.03;34.64;101937.13;5223484;28;20029;-72
2022/05/13 12:23:11;;;;;;;10.00;2.80;;;;;;;22.13;35.27;101926.47;5219460;28;20052;-73
2022/05/13 12:25:58;;;;;;;5.88;2.65;;;;;;;22.05;34.88;101934.34;5225722;28;20034;-73
2022/05/13 12:29:01;;;;;;;6.20;2.30;;;;;;;21.91;35.42;101903.59;5222371;28;20112;-71
2022/05/13 12:31:44;;;;;;;8.65;3.08;;;;;;;22.01;34.82;101909.75;5231674;28;20033;-71